sensor_id;sensor_type;location;lat;lon;timestamp;P1;durP1;ratioP1;P2;durP2;ratioP2
68229;SDS011;55048;52.220;5.160;2023-04-09T00:00:36;28.83;;;17.98;;
68229;SDS011;55048;52.220;5.160;2023-04-09T00:03:01;29.27;;;18.33;;
68229;SDS011;55048;52.220;5.160;2023-04-09T00:05:27;28.27;;;18.40;;
68229;SDS011;55048;52.220;5.160;2023-04-09T00:07:52;28.73;;;17.70;;
68229;SDS011;55048;52.220;5.160;2023-04-09T00:10:18;28.98;;;18.48;;
68229;SDS011;55048;52.220;5.160;2023-04-09T00:12:43;24.83;;;15.57;;
68229;SDS011;55048;52.220;5.160;2023-04-09T00:15:09;29.88;;;18.73;;
68229;SDS011;55048;52.220;5.160;2023-04-09T00:17:35;34.13;;;19.38;;
68229;SDS011;55048;52.220;5.160;2023-04-09T00:20:00;30.20;;;18.63;;
68229;SDS011;55048;52.220;5.160;2023-04-09T00:22:25;31.35;;;18.92;;
68229;SDS011;55048;52.220;5.160;2023-04-09T00:24:51;34.67;;;20.17;;
68229;SDS011;55048;52.220;5.160;2023-04-09T00:27:17;33.13;;;19.73;;
68229;SDS011;55048;52.220;5.160;2023-04-09T00:29:44;32.70;;;19.80;;
68229;SDS011;55048;52.220;5.160;2023-04-09T00:32:09;34.45;;;20.23;;
68229;SDS011;55048;52.220;5.160;2023-04-09T00:34:34;34.85;;;19.95;;
68229;SDS011;55048;52.220;5.160;2023-04-09T00:37:00;34.75;;;19.23;;
68229;SDS011;55048;52.220;5.160;2023-04-09T00:39:26;34.40;;;19.98;;
68229;SDS011;55048;52.220;5.160;2023-04-09T00:41:55;37.92;;;20.88;;
68229;SDS011;55048;52.220;5.160;2023-04-09T00:44:22;37.90;;;20.92;;
68229;SDS011;55048;52.220;5.160;2023-04-09T00:46:47;38.65;;;21.17;;
68229;SDS011;55048;52.220;5.160;2023-04-09T00:49:13;36.58;;;21.08;;
68229;SDS011;55048;52.220;5.160;2023-04-09T00:51:38;32.97;;;21.25;;
68229;SDS011;55048;52.220;5.160;2023-04-09T00:54:06;33.95;;;21.25;;
68229;SDS011;55048;52.220;5.160;2023-04-09T00:56:31;38.72;;;20.42;;
68229;SDS011;55048;52.220;5.160;2023-04-09T00:58:57;39.30;;;20.80;;
68229;SDS011;55048;52.220;5.160;2023-04-09T01:01:23;37.03;;;20.88;;
68229;SDS011;55048;52.220;5.160;2023-04-09T01:03:49;37.15;;;20.83;;
68229;SDS011;55048;52.220;5.160;2023-04-09T01:11:45;35.65;;;20.10;;
68229;SDS011;55048;52.220;5.160;2023-04-09T01:14:29;33.80;;;19.67;;
68229;SDS011;55048;52.220;5.160;2023-04-09T01:17:30;36.85;;;19.77;;
68229;SDS011;55048;52.220;5.160;2023-04-09T01:20:09;37.00;;;20.73;;
68229;SDS011;55048;52.220;5.160;2023-04-09T01:30:44;43.83;;;21.63;;
68229;SDS011;55048;52.220;5.160;2023-04-09T01:35:45;38.42;;;19.35;;
68229;SDS011;55048;52.220;5.160;2023-04-09T01:38:11;39.47;;;20.92;;
68229;SDS011;55048;52.220;5.160;2023-04-09T01:40:39;45.58;;;22.90;;
68229;SDS011;55048;52.220;5.160;2023-04-09T01:43:05;42.85;;;22.15;;
68229;SDS011;55048;52.220;5.160;2023-04-09T01:45:32;40.88;;;19.50;;
68229;SDS011;55048;52.220;5.160;2023-04-09T01:47:58;46.28;;;21.35;;
68229;SDS011;55048;52.220;5.160;2023-04-09T01:50:25;42.53;;;22.40;;
68229;SDS011;55048;52.220;5.160;2023-04-09T01:52:51;44.33;;;22.23;;
68229;SDS011;55048;52.220;5.160;2023-04-09T01:55:16;47.10;;;22.10;;
68229;SDS011;55048;52.220;5.160;2023-04-09T01:57:42;39.42;;;21.58;;
68229;SDS011;55048;52.220;5.160;2023-04-09T02:00:07;42.53;;;22.25;;
68229;SDS011;55048;52.220;5.160;2023-04-09T02:02:53;49.80;;;23.08;;
68229;SDS011;55048;52.220;5.160;2023-04-09T02:05:23;46.22;;;21.52;;
68229;SDS011;55048;52.220;5.160;2023-04-09T02:07:53;44.22;;;22.00;;
68229;SDS011;55048;52.220;5.160;2023-04-09T02:10:25;45.30;;;22.13;;
68229;SDS011;55048;52.220;5.160;2023-04-09T02:12:51;43.72;;;22.15;;
68229;SDS011;55048;52.220;5.160;2023-04-09T02:15:19;42.97;;;21.55;;
68229;SDS011;55048;52.220;5.160;2023-04-09T02:17:46;40.50;;;22.10;;
68229;SDS011;55048;52.220;5.160;2023-04-09T02:20:15;46.50;;;21.80;;
68229;SDS011;55048;52.220;5.160;2023-04-09T02:22:44;46.00;;;23.20;;
68229;SDS011;55048;52.220;5.160;2023-04-09T02:25:10;48.50;;;23.80;;
68229;SDS011;55048;52.220;5.160;2023-04-09T02:27:36;44.95;;;21.95;;
68229;SDS011;55048;52.220;5.160;2023-04-09T02:30:02;49.63;;;22.67;;
68229;SDS011;55048;52.220;5.160;2023-04-09T02:32:28;44.95;;;21.60;;
68229;SDS011;55048;52.220;5.160;2023-04-09T02:34:53;40.08;;;20.08;;
68229;SDS011;55048;52.220;5.160;2023-04-09T02:37:19;45.10;;;21.77;;
68229;SDS011;55048;52.220;5.160;2023-04-09T02:39:45;44.78;;;22.42;;
68229;SDS011;55048;52.220;5.160;2023-04-09T02:42:11;44.30;;;21.05;;
68229;SDS011;55048;52.220;5.160;2023-04-09T02:44:36;47.97;;;22.08;;
68229;SDS011;55048;52.220;5.160;2023-04-09T02:47:02;42.15;;;21.98;;
68229;SDS011;55048;52.220;5.160;2023-04-09T02:49:27;41.97;;;21.50;;
68229;SDS011;55048;52.220;5.160;2023-04-09T02:51:53;41.88;;;21.92;;
68229;SDS011;55048;52.220;5.160;2023-04-09T02:54:19;43.00;;;21.95;;
68229;SDS011;55048;52.220;5.160;2023-04-09T02:56:44;45.65;;;22.67;;
68229;SDS011;55048;52.220;5.160;2023-04-09T02:59:09;42.28;;;21.88;;
68229;SDS011;55048;52.220;5.160;2023-04-09T03:01:35;45.45;;;22.77;;
68229;SDS011;55048;52.220;5.160;2023-04-09T03:04:00;45.95;;;22.17;;
68229;SDS011;55048;52.220;5.160;2023-04-09T03:06:26;46.08;;;21.58;;
68229;SDS011;55048;52.220;5.160;2023-04-09T03:08:51;44.22;;;22.55;;
68229;SDS011;55048;52.220;5.160;2023-04-09T03:11:17;42.33;;;22.05;;
68229;SDS011;55048;52.220;5.160;2023-04-09T03:13:42;38.10;;;20.95;;
68229;SDS011;55048;52.220;5.160;2023-04-09T03:16:07;49.88;;;22.67;;
68229;SDS011;55048;52.220;5.160;2023-04-09T03:18:34;43.67;;;21.67;;
68229;SDS011;55048;52.220;5.160;2023-04-09T03:21:04;42.30;;;21.90;;
68229;SDS011;55048;52.220;5.160;2023-04-09T03:23:31;45.05;;;22.80;;
68229;SDS011;55048;52.220;5.160;2023-04-09T03:26:05;43.88;;;22.38;;
68229;SDS011;55048;52.220;5.160;2023-04-09T03:28:38;42.33;;;22.15;;
68229;SDS011;55048;52.220;5.160;2023-04-09T03:31:04;45.55;;;23.27;;
68229;SDS011;55048;52.220;5.160;2023-04-09T03:33:34;45.70;;;22.20;;
68229;SDS011;55048;52.220;5.160;2023-04-09T03:35:59;46.67;;;22.38;;
68229;SDS011;55048;52.220;5.160;2023-04-09T03:38:39;48.20;;;23.30;;
68229;SDS011;55048;52.220;5.160;2023-04-09T03:41:10;44.35;;;22.63;;
68229;SDS011;55048;52.220;5.160;2023-04-09T03:43:35;44.80;;;21.48;;
68229;SDS011;55048;52.220;5.160;2023-04-09T03:46:01;42.47;;;21.33;;
68229;SDS011;55048;52.220;5.160;2023-04-09T03:48:35;44.45;;;22.42;;
68229;SDS011;55048;52.220;5.160;2023-04-09T03:51:00;46.47;;;22.50;;
68229;SDS011;55048;52.220;5.160;2023-04-09T03:53:34;44.50;;;22.00;;
68229;SDS011;55048;52.220;5.160;2023-04-09T03:56:03;48.72;;;22.27;;
68229;SDS011;55048;52.220;5.160;2023-04-09T03:58:30;45.97;;;22.42;;
68229;SDS011;55048;52.220;5.160;2023-04-09T04:00:56;44.90;;;23.00;;
68229;SDS011;55048;52.220;5.160;2023-04-09T04:03:33;43.65;;;22.02;;
68229;SDS011;55048;52.220;5.160;2023-04-09T04:06:07;45.67;;;23.55;;
68229;SDS011;55048;52.220;5.160;2023-04-09T04:08:49;44.13;;;22.08;;
68229;SDS011;55048;52.220;5.160;2023-04-09T04:11:15;45.45;;;22.92;;
68229;SDS011;55048;52.220;5.160;2023-04-09T04:13:41;50.80;;;24.02;;
68229;SDS011;55048;52.220;5.160;2023-04-09T04:16:08;45.70;;;22.48;;
68229;SDS011;55048;52.220;5.160;2023-04-09T04:18:35;44.92;;;22.95;;
68229;SDS011;55048;52.220;5.160;2023-04-09T04:21:01;44.28;;;22.08;;
68229;SDS011;55048;52.220;5.160;2023-04-09T04:23:27;45.63;;;21.85;;
68229;SDS011;55048;52.220;5.160;2023-04-09T04:25:59;40.60;;;21.50;;
68229;SDS011;55048;52.220;5.160;2023-04-09T04:28:33;41.08;;;21.30;;
68229;SDS011;55048;52.220;5.160;2023-04-09T04:31:00;45.40;;;22.52;;
68229;SDS011;55048;52.220;5.160;2023-04-09T04:33:28;44.13;;;22.27;;
68229;SDS011;55048;52.220;5.160;2023-04-09T04:36:02;45.25;;;22.65;;
68229;SDS011;55048;52.220;5.160;2023-04-09T04:38:36;44.40;;;22.48;;
68229;SDS011;55048;52.220;5.160;2023-04-09T04:41:06;46.00;;;22.65;;
68229;SDS011;55048;52.220;5.160;2023-04-09T04:43:35;41.65;;;21.73;;
68229;SDS011;55048;52.220;5.160;2023-04-09T04:46:01;45.50;;;22.13;;
68229;SDS011;55048;52.220;5.160;2023-04-09T04:48:29;43.53;;;22.05;;
68229;SDS011;55048;52.220;5.160;2023-04-09T04:50:56;45.97;;;21.85;;
68229;SDS011;55048;52.220;5.160;2023-04-09T04:53:25;39.35;;;20.45;;
68229;SDS011;55048;52.220;5.160;2023-04-09T04:55:53;41.58;;;21.15;;
68229;SDS011;55048;52.220;5.160;2023-04-09T04:58:23;39.95;;;21.30;;
68229;SDS011;55048;52.220;5.160;2023-04-09T05:00:53;38.55;;;21.05;;
68229;SDS011;55048;52.220;5.160;2023-04-09T05:03:19;36.65;;;20.30;;
68229;SDS011;55048;52.220;5.160;2023-04-09T05:05:55;36.50;;;19.50;;
68229;SDS011;55048;52.220;5.160;2023-04-09T05:08:22;43.03;;;21.07;;
68229;SDS011;55048;52.220;5.160;2023-04-09T05:10:50;38.28;;;20.33;;
68229;SDS011;55048;52.220;5.160;2023-04-09T05:13:17;44.33;;;21.75;;
68229;SDS011;55048;52.220;5.160;2023-04-09T05:15:43;41.35;;;20.20;;
68229;SDS011;55048;52.220;5.160;2023-04-09T05:18:09;35.80;;;19.83;;
68229;SDS011;55048;52.220;5.160;2023-04-09T05:20:35;40.10;;;20.85;;
68229;SDS011;55048;52.220;5.160;2023-04-09T05:23:05;34.25;;;19.17;;
68229;SDS011;55048;52.220;5.160;2023-04-09T05:25:38;40.75;;;20.10;;
68229;SDS011;55048;52.220;5.160;2023-04-09T05:28:05;36.75;;;19.88;;
68229;SDS011;55048;52.220;5.160;2023-04-09T05:30:33;39.88;;;20.67;;
68229;SDS011;55048;52.220;5.160;2023-04-09T05:33:01;39.17;;;21.13;;
68229;SDS011;55048;52.220;5.160;2023-04-09T05:35:27;34.65;;;18.60;;
68229;SDS011;55048;52.220;5.160;2023-04-09T05:37:52;34.28;;;20.20;;
68229;SDS011;55048;52.220;5.160;2023-04-09T05:40:18;37.58;;;20.75;;
68229;SDS011;55048;52.220;5.160;2023-04-09T05:42:44;36.13;;;19.45;;
68229;SDS011;55048;52.220;5.160;2023-04-09T05:45:21;36.70;;;20.20;;
68229;SDS011;55048;52.220;5.160;2023-04-09T05:47:50;36.80;;;20.08;;
68229;SDS011;55048;52.220;5.160;2023-04-09T05:50:18;36.03;;;20.45;;
68229;SDS011;55048;52.220;5.160;2023-04-09T05:52:43;38.35;;;21.10;;
68229;SDS011;55048;52.220;5.160;2023-04-09T05:55:11;40.63;;;20.92;;
68229;SDS011;55048;52.220;5.160;2023-04-09T05:57:58;39.55;;;20.85;;
68229;SDS011;55048;52.220;5.160;2023-04-09T06:00:25;36.58;;;20.35;;
68229;SDS011;55048;52.220;5.160;2023-04-09T06:02:50;40.30;;;20.50;;
68229;SDS011;55048;52.220;5.160;2023-04-09T06:05:16;35.08;;;20.27;;
68229;SDS011;55048;52.220;5.160;2023-04-09T06:07:41;36.67;;;20.50;;
68229;SDS011;55048;52.220;5.160;2023-04-09T06:10:07;38.83;;;21.40;;
68229;SDS011;55048;52.220;5.160;2023-04-09T06:12:33;38.17;;;21.40;;
68229;SDS011;55048;52.220;5.160;2023-04-09T06:15:05;40.72;;;20.83;;
68229;SDS011;55048;52.220;5.160;2023-04-09T06:17:31;37.75;;;21.23;;
68229;SDS011;55048;52.220;5.160;2023-04-09T06:19:57;36.72;;;19.17;;
68229;SDS011;55048;52.220;5.160;2023-04-09T06:22:22;33.47;;;20.33;;
68229;SDS011;55048;52.220;5.160;2023-04-09T06:24:47;38.70;;;19.98;;
68229;SDS011;55048;52.220;5.160;2023-04-09T06:27:13;32.13;;;19.80;;
68229;SDS011;55048;52.220;5.160;2023-04-09T06:29:38;36.40;;;20.50;;
68229;SDS011;55048;52.220;5.160;2023-04-09T06:32:04;38.55;;;18.13;;
68229;SDS011;55048;52.220;5.160;2023-04-09T06:34:29;35.53;;;19.27;;
68229;SDS011;55048;52.220;5.160;2023-04-09T06:36:55;32.30;;;20.02;;
68229;SDS011;55048;52.220;5.160;2023-04-09T06:39:20;37.63;;;20.40;;
68229;SDS011;55048;52.220;5.160;2023-04-09T06:41:46;35.28;;;20.02;;
68229;SDS011;55048;52.220;5.160;2023-04-09T06:44:23;34.60;;;19.13;;
68229;SDS011;55048;52.220;5.160;2023-04-09T06:46:48;40.38;;;20.52;;
68229;SDS011;55048;52.220;5.160;2023-04-09T06:49:14;43.63;;;21.60;;
68229;SDS011;55048;52.220;5.160;2023-04-09T06:51:40;41.08;;;21.42;;
68229;SDS011;55048;52.220;5.160;2023-04-09T06:54:05;37.10;;;21.33;;
68229;SDS011;55048;52.220;5.160;2023-04-09T06:56:30;37.90;;;22.08;;
68229;SDS011;55048;52.220;5.160;2023-04-09T06:58:56;42.60;;;21.63;;
68229;SDS011;55048;52.220;5.160;2023-04-09T07:01:21;37.08;;;21.30;;
68229;SDS011;55048;52.220;5.160;2023-04-09T07:03:47;42.63;;;22.38;;
68229;SDS011;55048;52.220;5.160;2023-04-09T07:06:12;39.40;;;21.90;;
68229;SDS011;55048;52.220;5.160;2023-04-09T07:08:37;44.38;;;21.92;;
68229;SDS011;55048;52.220;5.160;2023-04-09T07:11:03;41.45;;;22.52;;
68229;SDS011;55048;52.220;5.160;2023-04-09T07:13:28;43.17;;;22.90;;
68229;SDS011;55048;52.220;5.160;2023-04-09T07:15:54;43.40;;;23.63;;
68229;SDS011;55048;52.220;5.160;2023-04-09T07:18:19;40.08;;;23.38;;
68229;SDS011;55048;52.220;5.160;2023-04-09T07:20:44;40.60;;;22.73;;
68229;SDS011;55048;52.220;5.160;2023-04-09T07:23:10;43.63;;;22.25;;
68229;SDS011;55048;52.220;5.160;2023-04-09T07:25:36;42.10;;;23.25;;
68229;SDS011;55048;52.220;5.160;2023-04-09T07:28:01;45.42;;;24.13;;
68229;SDS011;55048;52.220;5.160;2023-04-09T07:30:27;37.95;;;22.67;;
68229;SDS011;55048;52.220;5.160;2023-04-09T07:32:52;41.03;;;23.48;;
68229;SDS011;55048;52.220;5.160;2023-04-09T07:35:18;44.15;;;23.20;;
68229;SDS011;55048;52.220;5.160;2023-04-09T07:37:43;39.92;;;22.80;;
68229;SDS011;55048;52.220;5.160;2023-04-09T07:40:09;41.42;;;22.75;;
68229;SDS011;55048;52.220;5.160;2023-04-09T07:42:38;43.65;;;23.95;;
68229;SDS011;55048;52.220;5.160;2023-04-09T07:45:04;40.70;;;22.77;;
68229;SDS011;55048;52.220;5.160;2023-04-09T07:47:30;43.28;;;24.60;;
68229;SDS011;55048;52.220;5.160;2023-04-09T07:49:56;43.03;;;24.25;;
68229;SDS011;55048;52.220;5.160;2023-04-09T07:52:22;44.42;;;24.05;;
68229;SDS011;55048;52.220;5.160;2023-04-09T07:54:47;49.30;;;24.75;;
68229;SDS011;55048;52.220;5.160;2023-04-09T07:57:13;43.00;;;23.83;;
68229;SDS011;55048;52.220;5.160;2023-04-09T07:59:38;48.47;;;26.90;;
68229;SDS011;55048;52.220;5.160;2023-04-09T08:02:03;42.88;;;24.48;;
68229;SDS011;55048;52.220;5.160;2023-04-09T08:04:30;43.58;;;24.40;;
68229;SDS011;55048;52.220;5.160;2023-04-09T08:06:55;46.75;;;25.58;;
68229;SDS011;55048;52.220;5.160;2023-04-09T08:09:21;47.53;;;24.95;;
68229;SDS011;55048;52.220;5.160;2023-04-09T08:11:47;43.08;;;23.42;;
68229;SDS011;55048;52.220;5.160;2023-04-09T08:14:14;49.05;;;24.52;;
68229;SDS011;55048;52.220;5.160;2023-04-09T08:16:47;48.15;;;25.23;;
68229;SDS011;55048;52.220;5.160;2023-04-09T08:19:14;45.03;;;24.42;;
68229;SDS011;55048;52.220;5.160;2023-04-09T08:21:41;40.67;;;22.45;;
68229;SDS011;55048;52.220;5.160;2023-04-09T08:24:07;36.75;;;21.83;;
68229;SDS011;55048;52.220;5.160;2023-04-09T08:26:38;40.05;;;22.25;;
68229;SDS011;55048;52.220;5.160;2023-04-09T08:29:05;37.63;;;20.43;;
68229;SDS011;55048;52.220;5.160;2023-04-09T08:31:30;37.25;;;21.10;;
68229;SDS011;55048;52.220;5.160;2023-04-09T08:33:56;39.50;;;21.52;;
68229;SDS011;55048;52.220;5.160;2023-04-09T08:36:22;40.00;;;21.95;;
68229;SDS011;55048;52.220;5.160;2023-04-09T08:38:48;43.50;;;21.45;;
68229;SDS011;55048;52.220;5.160;2023-04-09T08:41:17;41.85;;;20.58;;
68229;SDS011;55048;52.220;5.160;2023-04-09T08:43:48;40.42;;;20.55;;
68229;SDS011;55048;52.220;5.160;2023-04-09T08:46:15;39.75;;;19.98;;
68229;SDS011;55048;52.220;5.160;2023-04-09T08:48:45;39.33;;;21.05;;
68229;SDS011;55048;52.220;5.160;2023-04-09T08:53:46;34.88;;;20.08;;
68229;SDS011;55048;52.220;5.160;2023-04-09T08:56:16;36.45;;;20.67;;
68229;SDS011;55048;52.220;5.160;2023-04-09T08:58:42;32.63;;;18.67;;
68229;SDS011;55048;52.220;5.160;2023-04-09T09:01:25;30.02;;;18.38;;
68229;SDS011;55048;52.220;5.160;2023-04-09T09:06:20;31.08;;;18.13;;
68229;SDS011;55048;52.220;5.160;2023-04-09T09:08:55;34.45;;;19.25;;
68229;SDS011;55048;52.220;5.160;2023-04-09T09:11:24;37.40;;;18.90;;
68229;SDS011;55048;52.220;5.160;2023-04-09T09:13:56;28.92;;;18.05;;
68229;SDS011;55048;52.220;5.160;2023-04-09T09:16:25;33.90;;;18.90;;
68229;SDS011;55048;52.220;5.160;2023-04-09T09:18:52;30.77;;;18.83;;
68229;SDS011;55048;52.220;5.160;2023-04-09T09:21:20;31.20;;;18.55;;
68229;SDS011;55048;52.220;5.160;2023-04-09T09:23:45;31.05;;;18.10;;
68229;SDS011;55048;52.220;5.160;2023-04-09T09:29:07;27.67;;;17.45;;
68229;SDS011;55048;52.220;5.160;2023-04-09T09:31:33;30.55;;;17.20;;
68229;SDS011;55048;52.220;5.160;2023-04-09T09:34:11;29.52;;;16.73;;
68229;SDS011;55048;52.220;5.160;2023-04-09T09:36:36;27.40;;;16.73;;
68229;SDS011;55048;52.220;5.160;2023-04-09T09:39:02;29.92;;;16.75;;
68229;SDS011;55048;52.220;5.160;2023-04-09T09:41:28;27.15;;;16.20;;
68229;SDS011;55048;52.220;5.160;2023-04-09T09:43:53;26.92;;;16.08;;
68229;SDS011;55048;52.220;5.160;2023-04-09T09:46:20;25.00;;;16.33;;
68229;SDS011;55048;52.220;5.160;2023-04-09T09:48:46;28.40;;;17.08;;
68229;SDS011;55048;52.220;5.160;2023-04-09T09:51:11;29.05;;;16.95;;
68229;SDS011;55048;52.220;5.160;2023-04-09T09:53:39;28.42;;;17.40;;
68229;SDS011;55048;52.220;5.160;2023-04-09T09:56:17;27.95;;;18.55;;
68229;SDS011;55048;52.220;5.160;2023-04-09T09:58:53;26.30;;;16.88;;
68229;SDS011;55048;52.220;5.160;2023-04-09T10:01:25;28.10;;;17.73;;
68229;SDS011;55048;52.220;5.160;2023-04-09T10:03:52;27.35;;;16.30;;
68229;SDS011;55048;52.220;5.160;2023-04-09T10:06:18;26.77;;;17.27;;
68229;SDS011;55048;52.220;5.160;2023-04-09T10:08:44;27.90;;;18.50;;
68229;SDS011;55048;52.220;5.160;2023-04-09T10:13:40;25.70;;;16.85;;
68229;SDS011;55048;52.220;5.160;2023-04-09T10:16:10;26.90;;;17.75;;
68229;SDS011;55048;52.220;5.160;2023-04-09T10:18:43;31.48;;;18.70;;
68229;SDS011;55048;52.220;5.160;2023-04-09T10:21:50;28.48;;;17.52;;
68229;SDS011;55048;52.220;5.160;2023-04-09T10:25:06;28.85;;;17.23;;
68229;SDS011;55048;52.220;5.160;2023-04-09T10:28:05;27.02;;;17.70;;
68229;SDS011;55048;52.220;5.160;2023-04-09T10:31:10;26.63;;;17.40;;
68229;SDS011;55048;52.220;5.160;2023-04-09T10:34:04;27.38;;;18.48;;
68229;SDS011;55048;52.220;5.160;2023-04-09T10:44:18;23.92;;;16.42;;
68229;SDS011;55048;52.220;5.160;2023-04-09T10:57:38;25.53;;;16.53;;
68229;SDS011;55048;52.220;5.160;2023-04-09T11:10:51;25.33;;;16.35;;
68229;SDS011;55048;52.220;5.160;2023-04-09T11:14:07;25.48;;;16.92;;
68229;SDS011;55048;52.220;5.160;2023-04-09T11:16:33;26.42;;;16.13;;
68229;SDS011;55048;52.220;5.160;2023-04-09T11:18:58;23.70;;;16.50;;
68229;SDS011;55048;52.220;5.160;2023-04-09T11:21:27;23.27;;;14.98;;
68229;SDS011;55048;52.220;5.160;2023-04-09T11:23:52;25.92;;;15.32;;
68229;SDS011;55048;52.220;5.160;2023-04-09T11:26:34;19.23;;;13.50;;
68229;SDS011;55048;52.220;5.160;2023-04-09T11:29:06;23.65;;;15.50;;
68229;SDS011;55048;52.220;5.160;2023-04-09T11:31:33;24.05;;;16.13;;
68229;SDS011;55048;52.220;5.160;2023-04-09T11:34:02;25.83;;;15.88;;
68229;SDS011;55048;52.220;5.160;2023-04-09T11:36:28;23.05;;;15.35;;
68229;SDS011;55048;52.220;5.160;2023-04-09T11:38:53;21.95;;;14.20;;
68229;SDS011;55048;52.220;5.160;2023-04-09T11:41:36;22.98;;;14.65;;
68229;SDS011;55048;52.220;5.160;2023-04-09T11:44:02;22.27;;;14.23;;
68229;SDS011;55048;52.220;5.160;2023-04-09T11:46:29;25.50;;;15.23;;
68229;SDS011;55048;52.220;5.160;2023-04-09T11:48:56;22.25;;;14.65;;
68229;SDS011;55048;52.220;5.160;2023-04-09T11:51:22;23.13;;;15.40;;
68229;SDS011;55048;52.220;5.160;2023-04-09T11:53:48;20.48;;;14.43;;
68229;SDS011;55048;52.220;5.160;2023-04-09T11:56:15;21.98;;;14.15;;
68229;SDS011;55048;52.220;5.160;2023-04-09T11:58:43;21.02;;;13.73;;
68229;SDS011;55048;52.220;5.160;2023-04-09T12:01:12;21.13;;;13.52;;
68229;SDS011;55048;52.220;5.160;2023-04-09T12:03:38;18.55;;;12.07;;
68229;SDS011;55048;52.220;5.160;2023-04-09T12:06:04;20.65;;;13.45;;
68229;SDS011;55048;52.220;5.160;2023-04-09T12:08:32;17.17;;;12.25;;
68229;SDS011;55048;52.220;5.160;2023-04-09T12:11:13;21.00;;;13.48;;
68229;SDS011;55048;52.220;5.160;2023-04-09T12:13:39;21.15;;;12.32;;
68229;SDS011;55048;52.220;5.160;2023-04-09T12:16:07;18.60;;;12.68;;
68229;SDS011;55048;52.220;5.160;2023-04-09T12:18:37;17.90;;;11.52;;
68229;SDS011;55048;52.220;5.160;2023-04-09T12:21:03;17.80;;;11.55;;
68229;SDS011;55048;52.220;5.160;2023-04-09T12:23:30;20.30;;;12.77;;
68229;SDS011;55048;52.220;5.160;2023-04-09T12:25:56;19.30;;;12.75;;
68229;SDS011;55048;52.220;5.160;2023-04-09T12:28:24;19.00;;;12.02;;
68229;SDS011;55048;52.220;5.160;2023-04-09T12:30:50;17.23;;;12.23;;
68229;SDS011;55048;52.220;5.160;2023-04-09T12:33:15;18.00;;;12.27;;
68229;SDS011;55048;52.220;5.160;2023-04-09T12:35:41;17.05;;;11.38;;
68229;SDS011;55048;52.220;5.160;2023-04-09T12:38:06;15.63;;;10.98;;
68229;SDS011;55048;52.220;5.160;2023-04-09T12:40:32;15.75;;;10.77;;
68229;SDS011;55048;52.220;5.160;2023-04-09T12:42:57;14.10;;;9.55;;
68229;SDS011;55048;52.220;5.160;2023-04-09T12:45:23;13.55;;;10.23;;
68229;SDS011;55048;52.220;5.160;2023-04-09T12:47:48;14.98;;;9.93;;
68229;SDS011;55048;52.220;5.160;2023-04-09T12:50:14;16.25;;;10.15;;
68229;SDS011;55048;52.220;5.160;2023-04-09T12:52:40;12.15;;;8.85;;
68229;SDS011;55048;52.220;5.160;2023-04-09T12:55:06;12.50;;;8.95;;
68229;SDS011;55048;52.220;5.160;2023-04-09T12:57:32;13.38;;;9.15;;
68229;SDS011;55048;52.220;5.160;2023-04-09T12:59:57;10.95;;;8.63;;
68229;SDS011;55048;52.220;5.160;2023-04-09T13:02:23;11.75;;;8.63;;
68229;SDS011;55048;52.220;5.160;2023-04-09T13:04:49;12.70;;;8.23;;
68229;SDS011;55048;52.220;5.160;2023-04-09T13:07:16;12.43;;;8.40;;
68229;SDS011;55048;52.220;5.160;2023-04-09T13:09:44;12.63;;;8.63;;
68229;SDS011;55048;52.220;5.160;2023-04-09T13:12:10;11.98;;;8.35;;
68229;SDS011;55048;52.220;5.160;2023-04-09T13:14:37;9.20;;;6.43;;
68229;SDS011;55048;52.220;5.160;2023-04-09T13:17:04;12.73;;;8.35;;
68229;SDS011;55048;52.220;5.160;2023-04-09T13:19:29;10.88;;;7.65;;
68229;SDS011;55048;52.220;5.160;2023-04-09T13:21:55;10.18;;;7.72;;
68229;SDS011;55048;52.220;5.160;2023-04-09T13:24:20;18.90;;;9.57;;
68229;SDS011;55048;52.220;5.160;2023-04-09T13:26:46;15.93;;;10.73;;
68229;SDS011;55048;52.220;5.160;2023-04-09T13:29:11;15.20;;;10.40;;
68229;SDS011;55048;52.220;5.160;2023-04-09T13:31:36;14.10;;;9.82;;
68229;SDS011;55048;52.220;5.160;2023-04-09T13:34:02;15.55;;;10.63;;
68229;SDS011;55048;52.220;5.160;2023-04-09T13:36:28;14.77;;;10.32;;
68229;SDS011;55048;52.220;5.160;2023-04-09T13:38:53;15.63;;;11.38;;
68229;SDS011;55048;52.220;5.160;2023-04-09T13:41:19;13.85;;;10.32;;
68229;SDS011;55048;52.220;5.160;2023-04-09T13:43:45;17.40;;;11.07;;
68229;SDS011;55048;52.220;5.160;2023-04-09T13:46:10;12.68;;;8.50;;
68229;SDS011;55048;52.220;5.160;2023-04-09T13:48:36;11.15;;;7.88;;
68229;SDS011;55048;52.220;5.160;2023-04-09T13:51:01;13.00;;;8.07;;
68229;SDS011;55048;52.220;5.160;2023-04-09T13:53:27;9.65;;;7.47;;
68229;SDS011;55048;52.220;5.160;2023-04-09T13:55:53;10.68;;;7.95;;
68229;SDS011;55048;52.220;5.160;2023-04-09T13:58:19;14.63;;;7.80;;
68229;SDS011;55048;52.220;5.160;2023-04-09T14:00:46;13.13;;;9.45;;
68229;SDS011;55048;52.220;5.160;2023-04-09T14:03:12;13.52;;;10.50;;
68229;SDS011;55048;52.220;5.160;2023-04-09T14:05:38;15.25;;;10.15;;
68229;SDS011;55048;52.220;5.160;2023-04-09T14:08:03;12.30;;;9.40;;
68229;SDS011;55048;52.220;5.160;2023-04-09T14:10:29;11.07;;;8.57;;
68229;SDS011;55048;52.220;5.160;2023-04-09T14:12:54;14.25;;;9.38;;
68229;SDS011;55048;52.220;5.160;2023-04-09T14:15:20;11.52;;;8.57;;
68229;SDS011;55048;52.220;5.160;2023-04-09T14:17:46;15.25;;;8.32;;
68229;SDS011;55048;52.220;5.160;2023-04-09T14:20:11;11.73;;;8.15;;
68229;SDS011;55048;52.220;5.160;2023-04-09T14:22:37;9.68;;;7.13;;
68229;SDS011;55048;52.220;5.160;2023-04-09T14:25:02;11.27;;;7.57;;
68229;SDS011;55048;52.220;5.160;2023-04-09T14:27:28;8.82;;;6.30;;
68229;SDS011;55048;52.220;5.160;2023-04-09T14:29:53;10.63;;;7.68;;
68229;SDS011;55048;52.220;5.160;2023-04-09T14:32:18;8.57;;;6.80;;
68229;SDS011;55048;52.220;5.160;2023-04-09T14:34:44;10.20;;;7.97;;
68229;SDS011;55048;52.220;5.160;2023-04-09T14:37:10;14.32;;;7.80;;
68229;SDS011;55048;52.220;5.160;2023-04-09T14:39:36;9.95;;;7.57;;
68229;SDS011;55048;52.220;5.160;2023-04-09T14:42:01;9.98;;;8.02;;
68229;SDS011;55048;52.220;5.160;2023-04-09T14:44:27;10.93;;;8.00;;
68229;SDS011;55048;52.220;5.160;2023-04-09T14:46:52;11.57;;;7.57;;
68229;SDS011;55048;52.220;5.160;2023-04-09T14:49:20;10.23;;;7.40;;
68229;SDS011;55048;52.220;5.160;2023-04-09T14:51:46;11.80;;;8.75;;
68229;SDS011;55048;52.220;5.160;2023-04-09T14:54:11;11.85;;;8.38;;
68229;SDS011;55048;52.220;5.160;2023-04-09T14:56:37;11.60;;;8.85;;
68229;SDS011;55048;52.220;5.160;2023-04-09T14:59:02;9.95;;;7.85;;
68229;SDS011;55048;52.220;5.160;2023-04-09T15:01:28;12.32;;;7.28;;
68229;SDS011;55048;52.220;5.160;2023-04-09T15:03:54;12.88;;;8.80;;
68229;SDS011;55048;52.220;5.160;2023-04-09T15:06:19;17.52;;;8.93;;
68229;SDS011;55048;52.220;5.160;2023-04-09T15:08:45;15.10;;;10.52;;
68229;SDS011;55048;52.220;5.160;2023-04-09T15:11:17;14.93;;;9.70;;
68229;SDS011;55048;52.220;5.160;2023-04-09T15:13:44;34.55;;;20.40;;
68229;SDS011;55048;52.220;5.160;2023-04-09T15:16:10;10.63;;;7.63;;
68229;SDS011;55048;52.220;5.160;2023-04-09T15:18:44;38.67;;;21.27;;
68229;SDS011;55048;52.220;5.160;2023-04-09T15:21:10;11.35;;;8.13;;
68229;SDS011;55048;52.220;5.160;2023-04-09T15:23:35;10.20;;;7.35;;